Time;durP1;ratioP1;P1;durP2;ratioP2;P2;SDS_P1;SDS_P2;PMS_P1;PMS_P2;Temp;Humidity;BMP_temperature;BMP_pressure;BME280_temperature;BME280_humidity;BME280_pressure;Samples;Min_cycle;Max_cycle;Signal;HPM_P1;HPM_P2
2022/11/07 00:00:14;;;;;;;18.55;2.33;;;11.80;99.90;;;;;;5090452;28;20089;-47
2022/11/07 00:02:40;;;;;;;18.50;2.42;;;11.80;99.90;;;;;;5090091;28;20147;-52
2022/11/07 00:05:06;;;;;;;27.52;3.13;;;11.90;99.90;;;;;;5090188;28;20110;-47
2022/11/07 00:07:32;;;;;;;21.10;2.97;;;11.90;99.90;;;;;;5092735;28;20471;-52
2022/11/07 00:09:57;;;;;;;23.65;3.17;;;11.90;99.90;;;;;;5093840;28;20032;-48
2022/11/07 00:12:23;;;;;;;20.90;2.78;;;12.00;99.90;;;;;;5093550;28;20023;-51
2022/11/07 00:14:49;;;;;;;16.08;2.03;;;12.00;99.90;;;;;;5093563;28;20453;-51
2022/11/07 00:17:14;;;;;;;15.38;2.67;;;12.00;99.90;;;;;;5094001;28;20024;-50
2022/11/07 00:19:40;;;;;;;22.40;2.35;;;12.00;99.90;;;;;;5093417;28;20503;-47
2022/11/07 00:22:05;;;;;;;24.30;2.17;;;12.00;99.90;;;;;;5093790;28;20032;-45
2022/11/07 00:24:31;;;;;;;24.77;2.63;;;11.90;99.90;;;;;;5084057;28;20425;-50
2022/11/07 00:26:57;;;;;;;26.13;3.42;;;12.00;99.90;;;;;;5090082;28;20031;-49
2022/11/07 00:29:22;;;;;;;23.10;3.50;;;11.90;99.90;;;;;;5093540;28;20035;-48
2022/11/07 00:31:48;;;;;;;21.48;2.88;;;12.00;99.90;;;;;;5093462;28;20028;-47
2022/11/07 00:34:14;;;;;;;18.70;2.85;;;12.00;99.90;;;;;;5093327;28;20028;-48
2022/11/07 00:36:40;;;;;;;24.52;2.78;;;12.00;99.90;;;;;;5093314;28;20020;-49
2022/11/07 00:39:06;;;;;;;27.38;3.50;;;12.10;99.90;;;;;;5093381;28;20122;-46
2022/11/07 00:41:32;;;;;;;22.20;3.15;;;12.10;99.90;;;;;;5093511;28;20472;-51
2022/11/07 00:43:58;;;;;;;22.98;2.40;;;12.10;99.90;;;;;;5093340;28;20476;-51
2022/11/07 00:46:24;;;;;;;20.65;2.42;;;12.10;99.90;;;;;;5091972;28;20028;-46
2022/11/07 00:48:49;;;;;;;16.27;2.25;;;12.20;99.90;;;;;;5093254;28;20166;-49
2022/11/07 00:51:22;;;;;;;16.95;2.33;;;12.20;99.90;;;;;;5093064;28;20027;-51
2022/11/07 00:53:48;;;;;;;17.52;2.22;;;12.20;99.90;;;;;;5093416;28;20032;-54
2022/11/07 00:56:16;;;;;;;16.60;2.13;;;12.20;99.90;;;;;;5092967;28;20314;-47
2022/11/07 00:58:43;;;;;;;16.60;1.95;;;12.20;99.90;;;;;;5093241;28;20031;-50
2022/11/07 01:01:15;;;;;;;15.40;2.78;;;12.20;99.90;;;;;;5092887;28;20085;-48
2022/11/07 01:06:30;;;;;;;14.88;2.00;;;12.30;99.90;;;;;;5093163;28;20035;-51
2022/11/07 01:08:56;;;;;;;18.10;1.77;;;12.20;99.90;;;;;;5092928;28;20040;-54
2022/11/07 01:11:23;;;;;;;18.08;2.63;;;12.30;99.90;;;;;;5092771;28;20095;-51
2022/11/07 01:13:49;;;;;;;15.13;1.95;;;12.30;99.90;;;;;;5092835;28;20044;-50
2022/11/07 01:16:15;;;;;;;17.10;2.53;;;12.20;99.90;;;;;;5092791;28;20421;-50
2022/11/07 01:18:41;;;;;;;13.07;1.67;;;12.30;99.90;;;;;;5092525;28;20358;-51
2022/11/07 01:21:08;;;;;;;14.57;2.10;;;12.30;99.90;;;;;;5092555;28;20061;-53
2022/11/07 01:23:35;;;;;;;24.88;2.97;;;12.30;99.90;;;;;;5092415;28;20036;-48
2022/11/07 01:26:06;;;;;;;15.93;2.22;;;12.30;99.90;;;;;;5092646;28;20023;-50
2022/11/07 01:28:32;;;;;;;23.98;4.07;;;12.30;99.90;;;;;;5092456;28;20060;-49
2022/11/07 01:31:01;;;;;;;16.30;2.47;;;12.30;99.90;;;;;;5092501;28;20038;-58
2022/11/07 01:33:26;;;;;;;18.30;2.80;;;12.30;99.90;;;;;;5092671;28;20058;-57
2022/11/07 01:35:52;;;;;;;18.83;2.33;;;12.40;99.90;;;;;;5092299;28;20055;-52
2022/11/07 01:38:17;;;;;;;29.75;3.42;;;12.40;99.90;;;;;;5092427;28;20028;-47
2022/11/07 01:44:23;;;;;;;26.67;2.78;;;12.40;99.90;;;;;;5092535;28;20119;-46
2022/11/07 01:46:51;;;;;;;26.52;2.97;;;12.40;99.90;;;;;;5075519;28;20054;-46
2022/11/07 01:49:24;;;;;;;24.13;3.10;;;12.40;99.90;;;;;;5091979;28;20032;-48
2022/11/07 01:52:13;;;;;;;24.67;3.17;;;12.40;99.90;;;;;;5092425;28;20059;-46
2022/11/07 01:54:57;;;;;;;22.80;3.23;;;12.40;99.90;;;;;;5092077;28;20020;-46
2022/11/07 01:57:28;;;;;;;27.27;3.70;;;12.30;99.90;;;;;;5090760;28;20321;-46
2022/11/07 01:59:58;;;;;;;36.08;3.88;;;12.30;99.90;;;;;;5091784;28;20039;-47
2022/11/07 02:02:26;;;;;;;31.60;4.53;;;12.40;99.90;;;;;;5091904;28;20649;-46
2022/11/07 02:04:53;;;;;;;27.15;3.38;;;12.40;99.90;;;;;;5091793;28;20036;-46
2022/11/07 02:07:22;;;;;;;27.45;3.58;;;12.30;99.90;;;;;;5091946;28;20043;-46
2022/11/07 02:09:49;;;;;;;26.10;3.47;;;12.30;99.90;;;;;;5091819;28;20024;-48
2022/11/07 02:12:17;;;;;;;31.73;3.30;;;12.30;99.90;;;;;;5091676;28;20484;-46
2022/11/07 02:14:42;;;;;;;23.88;3.28;;;12.30;99.90;;;;;;5091818;28;20024;-51
2022/11/07 02:17:10;;;;;;;26.15;3.40;;;12.20;99.90;;;;;;5091672;28;20043;-52
2022/11/07 02:19:40;;;;;;;18.48;3.05;;;12.30;99.90;;;;;;5091331;28;20028;-49
2022/11/07 02:22:22;;;;;;;21.05;3.28;;;12.30;99.90;;;;;;5091446;28;20032;-53
2022/11/07 02:24:54;;;;;;;22.55;3.50;;;12.30;99.90;;;;;;5091404;28;20048;-49
2022/11/07 02:27:23;;;;;;;29.95;3.85;;;12.40;99.90;;;;;;5090311;28;20024;-49
2022/11/07 02:29:55;;;;;;;25.17;2.72;;;12.50;99.90;;;;;;5090990;28;20125;-47
2022/11/07 02:32:21;;;;;;;24.90;3.45;;;12.40;99.90;;;;;;5091264;28;20112;-54
2022/11/07 02:35:27;;;;;;;27.27;3.33;;;12.40;99.90;;;;;;5091366;28;20063;-50
2022/11/07 02:37:53;;;;;;;22.38;3.20;;;12.40;99.90;;;;;;5056949;28;20043;-50
2022/11/07 02:40:20;;;;;;;20.20;3.40;;;12.40;99.90;;;;;;5091350;28;20024;-53
2022/11/07 02:42:46;;;;;;;28.23;4.38;;;12.40;99.90;;;;;;5091034;28;20060;-56
2022/11/07 02:45:39;;;;;;;19.27;3.50;;;12.40;99.90;;;;;;5091163;28;20031;-50
2022/11/07 02:48:05;;;;;;;25.48;3.80;;;12.40;99.90;;;;;;5090965;28;20035;-48
2022/11/07 02:50:31;;;;;;;24.25;3.63;;;12.40;99.90;;;;;;5091083;28;20477;-46
2022/11/07 02:52:56;;;;;;;30.95;3.53;;;12.40;99.90;;;;;;5090852;28;20032;-48
2022/11/07 02:55:22;;;;;;;32.72;4.45;;;12.40;99.90;;;;;;5091053;28;20388;-48
2022/11/07 02:57:48;;;;;;;28.27;3.70;;;12.40;99.90;;;;;;5090843;28;20028;-49
2022/11/07 03:00:14;;;;;;;29.73;3.95;;;12.50;99.90;;;;;;5090851;28;20089;-49
2022/11/07 03:02:45;;;;;;;28.20;3.90;;;12.50;99.90;;;;;;5091030;28;20024;-47
2022/11/07 03:05:13;;;;;;;26.27;4.35;;;12.50;99.90;;;;;;5090943;28;20036;-50
2022/11/07 03:07:40;;;;;;;32.78;3.80;;;12.50;99.90;;;;;;5090974;28;20028;-51
2022/11/07 03:10:06;;;;;;;22.92;3.35;;;12.60;99.90;;;;;;5090608;28;20146;-51
2022/11/07 03:12:31;;;;;;;27.33;3.38;;;12.50;99.90;;;;;;5090579;28;20095;-49
2022/11/07 03:14:57;;;;;;;29.38;3.97;;;12.60;99.90;;;;;;5090628;28;20107;-50
2022/11/07 03:17:23;;;;;;;25.52;3.10;;;12.60;99.90;;;;;;5090766;28;20503;-48
2022/11/07 03:19:48;;;;;;;27.65;4.45;;;12.60;99.90;;;;;;5090676;28;20036;-51
2022/11/07 03:22:14;;;;;;;21.63;3.20;;;12.70;99.90;;;;;;5089301;28;20439;-51
2022/11/07 03:24:39;;;;;;;24.25;3.63;;;12.70;99.90;;;;;;5090705;28;20036;-54
2022/11/07 03:27:05;;;;;;;23.15;3.00;;;12.70;99.90;;;;;;5090579;28;20012;-47
2022/11/07 03:29:30;;;;;;;24.60;3.35;;;12.70;99.90;;;;;;5090581;28;20415;-52
2022/11/07 03:31:56;;;;;;;22.33;3.30;;;12.70;99.90;;;;;;5089503;28;20013;-50
2022/11/07 03:34:22;;;;;;;27.02;3.50;;;12.70;99.90;;;;;;5093566;28;20394;-51
2022/11/07 03:36:47;;;;;;;20.23;3.08;;;12.70;99.90;;;;;;5110902;28;20024;-48
2022/11/07 03:39:13;;;;;;;28.48;3.20;;;12.70;99.90;;;;;;5111004;28;20621;-50
2022/11/07 03:41:38;;;;;;;22.13;3.45;;;12.70;99.90;;;;;;5112309;28;20028;-48
2022/11/07 03:44:04;;;;;;;16.05;3.95;;;12.80;99.90;;;;;;5114728;28;20023;-49
2022/11/07 03:46:30;;;;;;;21.52;3.03;;;12.70;99.90;;;;;;5115152;28;20076;-46
2022/11/07 03:48:56;;;;;;;26.67;3.97;;;12.80;99.90;;;;;;5114663;28;20024;-47
2022/11/07 03:51:21;;;;;;;27.67;3.15;;;12.80;99.90;;;;;;5114847;28;20540;-50
2022/11/07 03:53:47;;;;;;;25.80;3.10;;;12.80;99.90;;;;;;5114735;28;20040;-48
2022/11/07 03:56:13;;;;;;;23.88;3.13;;;12.70;99.90;;;;;;5114535;28;20077;-50
2022/11/07 03:58:38;;;;;;;23.33;3.33;;;12.80;99.90;;;;;;5114543;28;20019;-53
2022/11/07 04:01:04;;;;;;;30.75;3.67;;;12.80;99.90;;;;;;5114525;28;20459;-52
2022/11/07 04:03:31;;;;;;;24.83;3.75;;;12.80;99.90;;;;;;5107979;28;20084;-47
2022/11/07 04:05:58;;;;;;;22.42;3.03;;;12.70;99.90;;;;;;5114412;28;20084;-51
2022/11/07 04:08:24;;;;;;;26.35;3.45;;;12.80;99.90;;;;;;5114521;28;20016;-49
2022/11/07 04:10:50;;;;;;;28.45;3.70;;;12.90;99.90;;;;;;5114426;28;20088;-47
2022/11/07 04:18:44;;;;;;;25.30;3.53;;;13.00;99.90;;;;;;5114618;28;20089;-48
2022/11/07 04:21:09;;;;;;;29.65;3.97;;;13.00;99.90;;;;;;5113923;28;20040;-48
2022/11/07 04:23:35;;;;;;;28.95;3.50;;;13.00;99.90;;;;;;5114071;28;20043;-49
2022/11/07 04:28:45;;;;;;;24.10;3.03;;;13.00;99.90;;;;;;5114471;28;20548;-52
2022/11/07 04:31:10;;;;;;;25.48;3.40;;;13.00;99.90;;;;;;5113896;28;20020;-49
2022/11/07 04:33:36;;;;;;;20.98;3.10;;;13.00;99.90;;;;;;5114062;28;20059;-50
2022/11/07 04:36:02;;;;;;;29.17;4.70;;;12.90;99.90;;;;;;5113706;28;20322;-48
2022/11/07 04:38:27;;;;;;;25.40;2.72;;;12.90;99.90;;;;;;5113809;27;20027;-56
2022/11/07 04:40:57;;;;;;;20.02;2.70;;;12.90;99.90;;;;;;5113745;28;20028;-47
2022/11/07 04:43:23;;;;;;;;;;;12.90;99.90;;;;;;5114194;28;20092;-50
2022/11/07 04:45:49;;;;;;;23.42;2.55;;;12.90;99.90;;;;;;5113696;28;19914;-53
2022/11/07 04:48:15;;;;;;;25.58;2.90;;;12.80;99.90;;;;;;5113797;28;20122;-54
2022/11/07 04:50:42;;;;;;;20.70;3.05;;;12.80;99.90;;;;;;5113422;28;20392;-53
2022/11/07 04:53:12;;;;;;;20.45;3.10;;;12.80;99.90;;;;;;5113193;28;20076;-49
2022/11/07 04:55:37;;;;;;;24.90;3.25;;;12.80;99.90;;;;;;5104405;27;20068;-47
2022/11/07 04:58:03;;;;;;;20.42;3.15;;;12.70;99.90;;;;;;5093067;28;20099;-47
2022/11/07 05:00:28;;;;;;;20.48;3.00;;;12.70;99.90;;;;;;5093236;28;20384;-49
2022/11/07 05:02:54;;;;;;;24.25;4.95;;;12.70;99.90;;;;;;5092749;28;20020;-48
2022/11/07 05:05:20;;;;;;;24.08;3.10;;;12.70;99.90;;;;;;5092719;28;20016;-50
2022/11/07 05:07:46;;;;;;;32.13;3.60;;;12.70;99.90;;;;;;5092951;28;20028;-47
2022/11/07 05:10:26;;;;;;;26.30;3.63;;;12.60;99.90;;;;;;5091589;28;20034;-50
2022/11/07 05:12:52;;;;;;;26.65;4.43;;;12.60;99.90;;;;;;5092626;28;20032;-49
2022/11/07 05:15:18;;;;;;;28.58;3.38;;;12.60;99.90;;;;;;5092311;28;20016;-53
2022/11/07 05:17:44;;;;;;;32.53;3.72;;;12.60;99.90;;;;;;5092375;28;20028;-48
2022/11/07 05:20:29;;;;;;;30.92;4.20;;;12.70;99.90;;;;;;5092529;28;20436;-51
2022/11/07 05:23:11;;;;;;;27.17;3.88;;;12.70;99.90;;;;;;5092441;28;20081;-48
2022/11/07 05:25:46;;;;;;;26.02;3.28;;;12.70;99.90;;;;;;5092510;28;20031;-48
2022/11/07 05:28:18;;;;;;;38.30;4.60;;;12.80;99.90;;;;;;5092805;28;20036;-49
2022/11/07 05:30:45;;;;;;;22.70;3.60;;;12.90;99.90;;;;;;5092344;28;20495;-51
2022/11/07 05:33:12;;;;;;;34.15;4.22;;;12.80;99.90;;;;;;5092374;28;20043;-49
2022/11/07 05:35:38;;;;;;;36.42;4.35;;;12.80;99.90;;;;;;5092311;28;20016;-53
2022/11/07 05:38:04;;;;;;;24.75;3.40;;;12.90;99.90;;;;;;5092323;28;20103;-49
2022/11/07 05:40:30;;;;;;;26.55;3.10;;;12.90;99.90;;;;;;5109780;28;20020;-48
2022/11/07 05:43:01;;;;;;;25.30;3.00;;;12.90;99.90;;;;;;5112700;28;20106;-51
2022/11/07 05:45:28;;;;;;;21.88;3.20;;;12.90;99.90;;;;;;5112525;28;20483;-48
2022/11/07 05:48:05;;;;;;;36.63;3.90;;;12.90;99.90;;;;;;5112591;28;20020;-53
2022/11/07 05:50:31;;;;;;;30.48;4.50;;;12.90;99.90;;;;;;5112363;28;20019;-51
2022/11/07 05:52:57;;;;;;;21.83;3.35;;;12.90;99.90;;;;;;5112513;28;20016;-50
2022/11/07 05:55:24;;;;;;;37.50;3.55;;;12.90;99.90;;;;;;5112212;28;20380;-52
2022/11/07 05:57:50;;;;;;;36.08;4.95;;;13.00;99.90;;;;;;5112327;28;20454;-50
2022/11/07 06:00:17;;;;;;;29.20;3.92;;;13.00;99.90;;;;;;5112504;28;20058;-55
2022/11/07 06:02:44;;;;;;;30.80;3.70;;;13.00;99.90;;;;;;5112076;28;20031;-46
2022/11/07 06:05:10;;;;;;;27.08;3.45;;;13.00;99.90;;;;;;5111485;28;20035;-46
2022/11/07 06:07:37;;;;;;;29.92;3.72;;;13.00;99.90;;;;;;5111969;28;20591;-50
2022/11/07 06:10:07;;;;;;;29.20;3.72;;;13.00;99.90;;;;;;5112237;28;20058;-54
2022/11/07 06:12:33;;;;;;;27.25;3.35;;;13.00;99.90;;;;;;5112073;28;20039;-49
2022/11/07 06:14:59;;;;;;;38.67;4.18;;;13.10;99.90;;;;;;5111801;28;20123;-47
2022/11/07 06:17:24;;;;;;;31.45;4.25;;;13.00;99.90;;;;;;5111760;28;20023;-51
2022/11/07 06:19:50;;;;;;;29.58;3.08;;;13.00;99.90;;;;;;5111847;28;20040;-49
2022/11/07 06:22:15;;;;;;;31.08;4.75;;;13.10;99.90;;;;;;5111735;28;20059;-50
2022/11/07 06:24:41;;;;;;;24.80;3.70;;;13.00;99.90;;;;;;5111614;28;20073;-50
2022/11/07 06:27:07;;;;;;;24.67;3.10;;;13.00;99.90;;;;;;5111809;28;20015;-48
2022/11/07 06:29:32;;;;;;;19.42;2.40;;;13.00;99.90;;;;;;5111706;28;20075;-48
2022/11/07 06:31:58;;;;;;;16.38;1.85;;;12.90;99.90;;;;;;5093307;28;20107;-49
2022/11/07 06:34:24;;;;;;;21.33;2.65;;;12.80;99.90;;;;;;5091248;28;20028;-47
2022/11/07 06:36:53;;;;;;;17.85;2.90;;;12.80;99.90;;;;;;5091230;28;20016;-46
2022/11/07 06:39:19;;;;;;;19.85;2.60;;;12.70;99.90;;;;;;5100117;28;20469;-50
2022/11/07 06:41:44;;;;;;;20.85;2.83;;;12.60;99.90;;;;;;5111483;28;20107;-51
2022/11/07 06:44:10;;;;;;;19.00;2.55;;;12.60;99.90;;;;;;5111328;28;20449;-49
2022/11/07 06:46:36;;;;;;;27.67;3.22;;;12.60;99.90;;;;;;5111469;28;20392;-54
2022/11/07 06:49:01;;;;;;;27.25;3.63;;;12.60;99.90;;;;;;5111371;28;20049;-49
2022/11/07 06:51:27;;;;;;;20.38;3.17;;;12.70;99.90;;;;;;5111361;28;20483;-53
2022/11/07 06:53:53;;;;;;;25.17;3.33;;;12.70;99.90;;;;;;5111306;28;20020;-52
2022/11/07 06:56:19;;;;;;;31.08;3.85;;;12.70;99.90;;;;;;5111352;28;20024;-49
2022/11/07 06:58:44;;;;;;;29.45;3.78;;;12.70;99.90;;;;;;5111185;28;20034;-53
2022/11/07 07:01:14;;;;;;;27.85;3.60;;;12.80;99.90;;;;;;5111373;28;20111;-47
2022/11/07 07:03:41;;;;;;;31.38;3.17;;;12.80;99.90;;;;;;5111335;28;20122;-51
2022/11/07 07:06:12;;;;;;;27.85;3.83;;;12.80;99.90;;;;;;5111194;28;20023;-49
2022/11/07 07:08:38;;;;;;;31.95;3.47;;;12.90;99.90;;;;;;5111331;28;20016;-52
2022/11/07 07:11:10;;;;;;;29.55;3.13;;;12.90;99.90;;;;;;5111168;28;20019;-48
2022/11/07 07:13:36;;;;;;;23.80;3.28;;;12.90;99.90;;;;;;5111296;28;20057;-51
2022/11/07 07:16:03;;;;;;;21.35;3.10;;;12.90;99.90;;;;;;5114166;28;20015;-49
2022/11/07 07:18:29;;;;;;;22.08;2.95;;;12.90;99.90;;;;;;5116787;28;20106;-47
2022/11/07 07:21:05;;;;;;;21.02;2.72;;;12.90;99.90;;;;;;5116890;27;20449;-51
2022/11/07 07:23:33;;;;;;;28.73;3.00;;;13.00;99.90;;;;;;5118143;27;20035;-52
2022/11/07 07:26:03;;;;;;;26.83;3.33;;;13.00;99.90;;;;;;5117745;27;20020;-46
2022/11/07 07:28:29;;;;;;;23.90;2.97;;;13.00;99.90;;;;;;5117362;27;20024;-53
2022/11/07 07:31:09;;;;;;;31.60;3.40;;;13.00;99.90;;;;;;5117690;28;20386;-49
2022/11/07 07:33:35;;;;;;;24.67;2.97;;;13.00;99.90;;;;;;5118068;28;20058;-55
2022/11/07 07:36:01;;;;;;;22.52;3.15;;;13.00;99.90;;;;;;5117668;28;20016;-47
2022/11/07 07:38:26;;;;;;;32.78;3.08;;;13.10;99.90;;;;;;5117501;28;20395;-51
2022/11/07 07:40:52;;;;;;;29.77;3.35;;;13.10;99.90;;;;;;5117729;28;20019;-51
2022/11/07 07:43:17;;;;;;;35.65;3.63;;;13.10;99.90;;;;;;5117663;28;20035;-50
2022/11/07 07:45:43;;;;;;;28.92;3.72;;;13.20;99.90;;;;;;5117144;28;20067;-50
2022/11/07 07:48:08;;;;;;;25.00;3.08;;;13.20;99.90;;;;;;5117482;28;20008;-50
2022/11/07 07:50:34;;;;;;;26.92;3.63;;;13.20;99.90;;;;;;5117459;28;20020;-52
2022/11/07 07:53:00;;;;;;;23.77;3.15;;;13.20;99.90;;;;;;5117528;28;20499;-47
2022/11/07 07:55:25;;;;;;;28.17;2.92;;;13.10;99.90;;;;;;5106381;28;20123;-50
2022/11/07 07:57:51;;;;;;;20.67;2.80;;;13.20;99.90;;;;;;5117777;28;20058;-49
2022/11/07 08:00:17;;;;;;;15.18;2.22;;;13.10;99.90;;;;;;5114904;28;20027;-50
2022/11/07 08:02:42;;;;;;;16.40;2.70;;;13.10;99.90;;;;;;5096851;28;20024;-51
2022/11/07 08:05:12;;;;;;;23.20;3.50;;;13.10;99.90;;;;;;5096689;28;20438;-46
2022/11/07 08:07:48;;;;;;;;;;;13.10;99.90;;;;;;5097336;28;20023;-49
2022/11/07 08:10:13;;;;;;;21.85;2.95;;;13.10;99.90;;;;;;5096834;28;19912;-51
2022/11/07 08:12:43;;;;;;;23.17;3.13;;;13.20;99.90;;;;;;5096554;28;20097;-47
2022/11/07 08:15:11;;;;;;;22.45;3.42;;;13.20;99.90;;;;;;5096952;28;20016;-48
2022/11/07 08:17:37;;;;;;;18.60;2.60;;;13.20;99.90;;;;;;5096609;28;20384;-55
2022/11/07 08:20:03;;;;;;;22.40;3.45;;;13.30;99.90;;;;;;5095476;28;20243;-52
2022/11/07 08:22:28;;;;;;;26.20;2.65;;;13.30;99.90;;;;;;5096713;28;20058;-47
2022/11/07 08:24:54;;;;;;;23.13;3.38;;;13.30;99.90;;;;;;5096766;28;20028;-54
2022/11/07 08:27:20;;;;;;;24.08;2.92;;;13.30;99.90;;;;;;5094279;28;20051;-47
2022/11/07 08:29:45;;;;;;;18.00;3.45;;;13.20;99.90;;;;;;5093141;28;20473;-48
2022/11/07 08:32:11;;;;;;;17.58;3.35;;;13.30;99.90;;;;;;5092796;28;20024;-51
2022/11/07 08:34:37;;;;;;;20.00;2.97;;;13.20;99.90;;;;;;5092666;28;20026;-47
2022/11/07 08:37:03;;;;;;;21.42;2.38;;;13.30;99.90;;;;;;5091000;28;20103;-48
2022/11/07 08:39:28;;;;;;;22.00;3.33;;;13.30;99.90;;;;;;5092365;28;20534;-52
2022/11/07 08:41:54;;;;;;;21.45;2.50;;;13.30;99.90;;;;;;5093297;28;20086;-49
2022/11/07 08:44:20;;;;;;;23.27;2.85;;;13.40;99.90;;;;;;5093413;28;20388;-48
2022/11/07 08:46:45;;;;;;;30.85;3.90;;;13.40;99.90;;;;;;5093259;28;20392;-48
2022/11/07 08:49:11;;;;;;;19.05;2.95;;;13.50;99.90;;;;;;5092729;28;20028;-52
2022/11/07 08:51:37;;;;;;;28.00;3.33;;;13.50;99.90;;;;;;5093272;28;20455;-47
2022/11/07 08:54:02;;;;;;;31.38;3.55;;;13.60;99.90;;;;;;5092618;28;20020;-49
2022/11/07 08:56:29;;;;;;;28.40;3.45;;;13.60;99.90;;;;;;5092980;28;20025;-49
2022/11/07 08:58:54;;;;;;;28.38;3.45;;;13.60;99.90;;;;;;5093240;28;20089;-52
2022/11/07 09:01:20;;;;;;;23.83;3.20;;;13.60;99.90;;;;;;5092322;28;20020;-47
2022/11/07 09:03:46;;;;;;;22.27;3.30;;;13.60;99.90;;;;;;5092965;28;20228;-47
2022/11/07 09:06:11;;;;;;;23.15;3.35;;;13.70;99.90;;;;;;5076145;28;20385;-54
2022/11/07 09:08:37;;;;;;;29.73;4.20;;;13.70;99.90;;;;;;5077026;28;20028;-52
2022/11/07 09:11:04;;;;;;;26.77;3.40;;;13.70;99.90;;;;;;5091206;28;20479;-54
2022/11/07 09:13:31;;;;;;;28.73;3.63;;;13.70;99.90;;;;;;5092438;28;20517;-57
2022/11/07 09:15:59;;;;;;;27.80;3.40;;;13.70;99.90;;;;;;5092092;28;20023;-47
2022/11/07 09:18:26;;;;;;;17.60;3.17;;;13.80;99.90;;;;;;5092532;28;20026;-51
2022/11/07 09:20:52;;;;;;;24.80;3.50;;;13.80;99.90;;;;;;5091898;28;20067;-49
2022/11/07 09:23:17;;;;;;;27.95;3.85;;;13.80;99.90;;;;;;5092700;28;20028;-51
2022/11/07 09:25:43;;;;;;;34.72;3.30;;;13.80;99.90;;;;;;5092567;28;20392;-48
2022/11/07 09:28:09;;;;;;;24.25;3.58;;;13.80;99.90;;;;;;5092455;28;20020;-46
2022/11/07 09:30:34;;;;;;;27.67;3.60;;;13.80;99.90;;;;;;5105124;28;20035;-52
2022/11/07 09:33:00;;;;;;;25.35;3.60;;;13.80;99.90;;;;;;5111178;28;20437;-49
2022/11/07 09:35:26;;;;;;;29.02;3.08;;;13.80;99.90;;;;;;5112675;28;20087;-50
2022/11/07 09:37:52;;;;;;;20.50;3.20;;;13.80;99.90;;;;;;5112599;28;20020;-46
2022/11/07 09:40:31;;;;;;;21.42;2.90;;;13.70;99.90;;;;;;5110878;28;20072;-47
2022/11/07 09:43:26;;;;;;;26.35;4.10;;;13.80;99.90;;;;;;5112495;28;20484;-45
2022/11/07 09:46:23;;;;;;;16.00;2.92;;;13.80;99.90;;;;;;5093983;28;20369;-47
2022/11/07 09:49:12;;;;;;;22.30;3.00;;;13.70;99.90;;;;;;5076974;28;20032;-46
2022/11/07 09:51:58;;;;;;;18.50;2.70;;;13.80;99.90;;;;;;5094325;28;20035;-47
2022/11/07 09:54:27;;;;;;;19.52;3.35;;;13.80;99.90;;;;;;5087453;28;20040;-47
2022/11/07 09:56:56;;;;;;;16.60;2.33;;;13.80;99.90;;;;;;5091726;28;20031;-50
2022/11/07 09:59:25;;;;;;;16.40;2.28;;;13.80;99.90;;;;;;5091914;28;20085;-50
2022/11/07 10:01:50;;;;;;;15.80;2.47;;;13.80;99.90;;;;;;5091713;28;20113;-49
2022/11/07 10:04:19;;;;;;;19.20;3.63;;;13.80;99.90;;;;;;5091539;28;20044;-47
2022/11/07 10:06:53;;;;;;;31.20;3.80;;;13.90;99.90;;;;;;5084838;28;20556;-48
2022/11/07 10:09:48;;;;;;;25.85;3.58;;;13.90;99.90;;;;;;5091610;28;20036;-49
2022/11/07 10:12:39;;;;;;;27.77;3.70;;;13.90;99.90;;;;;;5087974;28;20023;-48
2022/11/07 10:15:32;;;;;;;25.63;3.10;;;14.00;99.90;;;;;;5091385;28;20016;-47
2022/11/07 10:18:35;;;;;;;19.63;3.25;;;14.00;99.90;;;;;;5089875;28;20548;-45
2022/11/07 10:21:41;;;;;;;32.58;4.63;;;14.10;99.90;;;;;;5090211;28;20056;-52
2022/11/07 10:24:18;;;;;;;20.17;3.35;;;14.20;99.90;;;;;;5071527;28;20510;-49
2022/11/07 10:26:44;;;;;;;29.05;5.05;;;14.20;99.90;;;;;;5091501;28;20024;-47
2022/11/07 10:29:19;;;;;;;33.92;4.60;;;14.20;99.90;;;;;;5091077;28;20032;-53
2022/11/07 10:31:47;;;;;;;23.88;4.28;;;14.20;99.90;;;;;;5091168;28;20020;-52
2022/11/07 10:34:22;;;;;;;33.67;5.57;;;14.20;99.90;;;;;;5090897;28;21862;-50
2022/11/07 10:36:48;;;;;;;38.95;4.15;;;14.30;99.90;;;;;;5091134;28;20020;-45
2022/11/07 10:39:16;;;;;;;28.25;3.65;;;14.30;99.90;;;;;;5099218;28;20042;-52
2022/11/07 10:42:04;;;;;;;38.13;4.03;;;14.40;99.90;;;;;;5111512;28;20024;-45
2022/11/07 10:44:31;;;;;;;38.90;4.45;;;14.50;99.90;;;;;;5111509;28;20075;-51
2022/11/07 10:46:57;;;;;;;25.45;3.80;;;14.50;99.90;;;;;;5111228;28;20034;-49
2022/11/07 10:49:24;;;;;;;30.85;3.92;;;14.50;99.90;;;;;;5111469;28;20036;-47
2022/11/07 10:51:50;;;;;;;26.40;3.95;;;14.50;99.90;;;;;;5111076;28;20024;-45
2022/11/07 10:54:27;;;;;;;33.08;4.05;;;14.50;99.90;;;;;;5092720;28;20024;-47
2022/11/07 10:57:08;;;;;;;32.80;3.90;;;14.50;99.90;;;;;;5088768;28;20030;-46
2022/11/07 10:59:36;;;;;;;23.95;3.63;;;14.50;99.90;;;;;;5088813;28;20047;-46
2022/11/07 11:02:03;;;;;;;40.30;4.63;;;14.60;99.90;;;;;;5090238;28;20023;-46
2022/11/07 11:04:31;;;;;;;22.30;3.65;;;14.70;99.90;;;;;;5101754;28;20071;-48
2022/11/07 11:07:03;;;;;;;32.08;4.72;;;14.70;99.90;;;;;;5110712;28;20027;-47
2022/11/07 11:09:33;;;;;;;36.53;4.65;;;14.70;99.90;;;;;;5110629;28;20028;-50
2022/11/07 11:12:10;;;;;;;32.42;4.32;;;14.60;99.90;;;;;;5110555;28;20024;-52
2022/11/07 11:14:36;;;;;;;26.77;4.10;;;14.70;99.90;;;;;;5099785;28;20106;-49
2022/11/07 11:17:02;;;;;;;29.40;4.70;;;14.70;99.90;;;;;;5090338;28;20068;-45
2022/11/07 11:19:31;;;;;;;21.67;3.47;;;14.60;99.90;;;;;;5089825;28;20027;-45
2022/11/07 11:21:58;;;;;;;21.02;3.60;;;14.60;99.90;;;;;;5089260;28;20554;-46
2022/11/07 11:24:36;;;;;;;30.02;4.03;;;14.50;99.90;;;;;;5089026;28;20119;-51
2022/11/07 11:27:04;;;;;;;32.97;4.60;;;14.40;99.90;;;;;;5089573;28;20095;-48
2022/11/07 11:29:37;;;;;;;32.13;5.30;;;14.20;99.90;;;;;;5089213;28;20024;-49
2022/11/07 11:32:04;;;;;;;20.85;4.30;;;14.20;99.90;;;;;;5082916;28;20013;-49
2022/11/07 11:34:44;;;;;;;30.10;4.25;;;14.20;99.90;;;;;;5079438;28;20034;-47
2022/11/07 11:37:26;;;;;;;21.77;3.20;;;14.10;99.90;;;;;;5089164;28;20022;-50
2022/11/07 11:40:08;;;;;;;25.67;3.97;;;14.20;99.90;;;;;;5103078;28;20035;-50
2022/11/07 11:42:52;;;;;;;31.48;5.05;;;14.20;99.90;;;;;;5110204;28;20015;-48
2022/11/07 11:45:34;;;;;;;32.88;4.10;;;14.10;99.90;;;;;;5109733;28;20114;-49
2022/11/07 11:48:17;;;;;;;28.70;4.75;;;14.10;99.90;;;;;;5097464;28;20027;-48
2022/11/07 11:51:24;;;;;;;20.77;3.80;;;14.10;99.90;;;;;;5070264;28;20871;-49
2022/11/07 11:53:50;;;;;;;26.38;3.30;;;14.00;99.90;;;;;;5079137;28;20055;-52
2022/11/07 11:56:32;;;;;;;26.38;3.42;;;14.00;99.90;;;;;;5089164;28;20028;-45
2022/11/07 11:59:16;;;;;;;25.58;3.92;;;14.00;99.90;;;;;;5088941;28;20043;-45
2022/11/07 12:02:00;;;;;;;28.35;4.50;;;14.00;99.90;;;;;;5088616;28;20019;-45
2022/11/07 12:04:50;;;;;;;29.40;4.10;;;14.00;99.90;;;;;;5091554;28;20036;-46
2022/11/07 12:07:27;;;;;;;34.15;4.60;;;14.00;99.90;;;;;;5092771;28;20028;-45
2022/11/07 12:09:59;;;;;;;32.75;4.90;;;14.10;99.90;;;;;;5091301;28;20044;-45
2022/11/07 12:12:28;;;;;;;43.15;5.13;;;14.00;99.90;;;;;;5090136;28;20020;-45
2022/11/07 12:15:04;;;;;;;33.07;4.53;;;14.10;99.90;;;;;;5093141;28;20016;-51
2022/11/07 12:18:07;;;;;;;31.50;4.70;;;14.10;99.90;;;;;;5086822;28;20670;-47
2022/11/07 12:21:08;;;;;;;37.17;5.35;;;14.20;99.90;;;;;;5091708;28;20116;-52
2022/11/07 12:23:47;;;;;;;33.20;5.47;;;14.20;99.90;;;;;;5092184;28;20067;-50
2022/11/07 12:26:32;;;;;;;32.55;4.82;;;14.20;99.90;;;;;;5091982;28;20502;-51
2022/11/07 12:29:10;;;;;;;24.48;4.60;;;14.20;99.90;;;;;;5092789;28;20062;-48
2022/11/07 12:32:01;;;;;;;37.53;5.65;;;14.20;99.90;;;;;;5087184;28;20020;-46
2022/11/07 12:34:26;;;;;;;25.13;3.90;;;14.20;99.90;;;;;;5092194;28;20057;-49
2022/11/07 12:37:04;;;;;;;25.80;4.68;;;14.30;99.90;;;;;;5092092;28;20013;-49
2022/11/07 12:39:54;;;;;;;35.22;4.25;;;14.30;99.90;;;;;;5098204;28;20038;-46
2022/11/07 12:42:38;;;;;;;27.17;4.72;;;14.40;99.90;;;;;;5087425;28;20043;-46
2022/11/07 12:45:14;;;;;;;33.70;3.95;;;14.40;99.90;;;;;;5091986;28;20550;-46
2022/11/07 12:48:14;;;;;;;26.42;4.50;;;14.40;99.90;;;;;;5092067;28;20020;-51
2022/11/07 12:50:46;;;;;;;;;;;14.50;99.90;;;;;;5080736;28;20111;-48
2022/11/07 12:53:47;;;;;;;27.23;4.20;;;14.60;99.90;;;;;;5090192;28;19956;-49
2022/11/07 12:56:20;;;;;;;26.52;4.43;;;14.50;99.90;;;;;;5078944;28;20046;-49
2022/11/07 12:58:47;;;;;;;30.80;4.70;;;14.50;99.90;;;;;;5090060;28;20476;-50
2022/11/07 13:01:16;;;;;;;24.70;4.00;;;14.50;99.90;;;;;;5091345;28;20118;-54
2022/11/07 13:03:56;;;;;;;27.00;4.72;;;14.50;99.90;;;;;;5090830;28;20134;-46
2022/11/07 13:06:30;;;;;;;30.13;4.28;;;14.50;99.90;;;;;;5090136;28;20028;-45